sensor_id;sensor_type;location;lat;lon;timestamp;P1;durP1;ratioP1;P2;durP2;ratioP2
12921;SDS011;6528;48.086;16.282;2023-01-23T00:01:21;3.90;;;3.60;;
12921;SDS011;6528;48.086;16.282;2023-01-23T00:03:52;3.40;;;3.10;;
12921;SDS011;6528;48.086;16.282;2023-01-23T00:06:20;3.70;;;3.40;;
12921;SDS011;6528;48.086;16.282;2023-01-23T00:08:47;4.23;;;3.93;;
12921;SDS011;6528;48.086;16.282;2023-01-23T00:11:15;3.80;;;3.50;;
12921;SDS011;6528;48.086;16.282;2023-01-23T00:13:43;3.10;;;2.90;;
12921;SDS011;6528;48.086;16.282;2023-01-23T00:16:11;3.60;;;3.30;;
12921;SDS011;6528;48.086;16.282;2023-01-23T00:18:40;3.77;;;3.47;;
12921;SDS011;6528;48.086;16.282;2023-01-23T00:21:08;3.83;;;3.53;;
12921;SDS011;6528;48.086;16.282;2023-01-23T00:23:37;3.67;;;3.37;;
12921;SDS011;6528;48.086;16.282;2023-01-23T00:26:08;3.40;;;3.20;;
12921;SDS011;6528;48.086;16.282;2023-01-23T00:28:42;4.30;;;3.90;;
12921;SDS011;6528;48.086;16.282;2023-01-23T00:31:10;4.17;;;3.87;;
12921;SDS011;6528;48.086;16.282;2023-01-23T00:33:40;3.30;;;3.10;;
12921;SDS011;6528;48.086;16.282;2023-01-23T00:36:08;3.43;;;3.23;;
12921;SDS011;6528;48.086;16.282;2023-01-23T00:38:36;3.43;;;3.13;;
12921;SDS011;6528;48.086;16.282;2023-01-23T00:41:03;3.37;;;3.17;;
12921;SDS011;6528;48.086;16.282;2023-01-23T00:43:30;3.87;;;3.60;;
12921;SDS011;6528;48.086;16.282;2023-01-23T00:45:57;4.10;;;3.30;;
12921;SDS011;6528;48.086;16.282;2023-01-23T00:48:24;3.80;;;3.50;;
12921;SDS011;6528;48.086;16.282;2023-01-23T00:50:51;4.10;;;3.80;;
12921;SDS011;6528;48.086;16.282;2023-01-23T00:53:18;5.77;;;3.30;;
12921;SDS011;6528;48.086;16.282;2023-01-23T00:55:45;3.47;;;3.27;;
12921;SDS011;6528;48.086;16.282;2023-01-23T00:58:12;3.50;;;3.30;;
12921;SDS011;6528;48.086;16.282;2023-01-23T01:00:39;4.00;;;3.40;;
12921;SDS011;6528;48.086;16.282;2023-01-23T01:03:06;3.43;;;3.13;;
12921;SDS011;6528;48.086;16.282;2023-01-23T01:05:33;3.33;;;3.03;;
12921;SDS011;6528;48.086;16.282;2023-01-23T01:08:00;3.57;;;3.27;;
12921;SDS011;6528;48.086;16.282;2023-01-23T01:10:27;3.37;;;3.10;;
12921;SDS011;6528;48.086;16.282;2023-01-23T01:12:55;4.47;;;4.17;;
12921;SDS011;6528;48.086;16.282;2023-01-23T01:15:22;3.50;;;3.23;;
12921;SDS011;6528;48.086;16.282;2023-01-23T01:17:49;4.90;;;3.77;;
12921;SDS011;6528;48.086;16.282;2023-01-23T01:20:22;3.73;;;3.27;;
12921;SDS011;6528;48.086;16.282;2023-01-23T01:22:51;3.63;;;3.33;;
12921;SDS011;6528;48.086;16.282;2023-01-23T01:25:19;3.53;;;3.27;;
12921;SDS011;6528;48.086;16.282;2023-01-23T01:27:46;3.80;;;3.40;;
12921;SDS011;6528;48.086;16.282;2023-01-23T01:30:13;3.37;;;3.17;;
12921;SDS011;6528;48.086;16.282;2023-01-23T01:32:41;3.30;;;3.10;;
12921;SDS011;6528;48.086;16.282;2023-01-23T01:35:08;3.07;;;2.83;;
12921;SDS011;6528;48.086;16.282;2023-01-23T01:37:37;3.83;;;3.53;;
12921;SDS011;6528;48.086;16.282;2023-01-23T01:40:05;3.50;;;3.30;;
12921;SDS011;6528;48.086;16.282;2023-01-23T01:42:40;3.60;;;3.30;;
12921;SDS011;6528;48.086;16.282;2023-01-23T01:48:13;3.60;;;3.30;;
12921;SDS011;6528;48.086;16.282;2023-01-23T01:50:40;3.47;;;3.27;;
12921;SDS011;6528;48.086;16.282;2023-01-23T01:53:08;3.60;;;3.30;;
12921;SDS011;6528;48.086;16.282;2023-01-23T01:55:36;4.07;;;3.50;;
12921;SDS011;6528;48.086;16.282;2023-01-23T01:58:04;3.50;;;3.30;;
12921;SDS011;6528;48.086;16.282;2023-01-23T02:00:31;3.80;;;3.50;;
12921;SDS011;6528;48.086;16.282;2023-01-23T02:02:58;4.10;;;3.77;;
12921;SDS011;6528;48.086;16.282;2023-01-23T02:05:33;3.43;;;3.13;;
12921;SDS011;6528;48.086;16.282;2023-01-23T02:08:26;3.73;;;3.43;;
12921;SDS011;6528;48.086;16.282;2023-01-23T02:10:55;3.73;;;3.47;;
12921;SDS011;6528;48.086;16.282;2023-01-23T02:13:29;3.77;;;3.53;;
12921;SDS011;6528;48.086;16.282;2023-01-23T02:16:02;3.20;;;3.00;;
12921;SDS011;6528;48.086;16.282;2023-01-23T02:18:30;3.70;;;3.47;;
12921;SDS011;6528;48.086;16.282;2023-01-23T02:21:00;3.70;;;3.50;;
12921;SDS011;6528;48.086;16.282;2023-01-23T02:26:04;3.30;;;3.10;;
12921;SDS011;6528;48.086;16.282;2023-01-23T02:28:40;3.70;;;3.50;;
12921;SDS011;6528;48.086;16.282;2023-01-23T02:31:09;3.60;;;3.40;;
12921;SDS011;6528;48.086;16.282;2023-01-23T02:36:04;3.73;;;3.43;;
12921;SDS011;6528;48.086;16.282;2023-01-23T02:38:34;3.77;;;3.47;;
12921;SDS011;6528;48.086;16.282;2023-01-23T02:41:06;3.20;;;3.00;;
12921;SDS011;6528;48.086;16.282;2023-01-23T02:43:37;3.93;;;3.63;;
12921;SDS011;6528;48.086;16.282;2023-01-23T02:46:05;4.03;;;3.70;;
12921;SDS011;6528;48.086;16.282;2023-01-23T02:48:34;3.90;;;3.60;;
12921;SDS011;6528;48.086;16.282;2023-01-23T02:51:02;3.83;;;3.53;;
12921;SDS011;6528;48.086;16.282;2023-01-23T02:53:29;3.63;;;3.33;;
12921;SDS011;6528;48.086;16.282;2023-01-23T02:55:56;3.33;;;3.03;;
12921;SDS011;6528;48.086;16.282;2023-01-23T02:58:24;3.37;;;3.07;;
12921;SDS011;6528;48.086;16.282;2023-01-23T03:01:10;3.90;;;3.60;;
12921;SDS011;6528;48.086;16.282;2023-01-23T03:03:36;4.10;;;3.80;;
12921;SDS011;6528;48.086;16.282;2023-01-23T03:06:03;3.47;;;3.27;;
12921;SDS011;6528;48.086;16.282;2023-01-23T03:08:31;3.50;;;3.30;;
12921;SDS011;6528;48.086;16.282;2023-01-23T03:11:02;3.30;;;3.10;;
12921;SDS011;6528;48.086;16.282;2023-01-23T03:13:29;4.03;;;3.63;;
12921;SDS011;6528;48.086;16.282;2023-01-23T03:15:56;3.80;;;3.50;;
12921;SDS011;6528;48.086;16.282;2023-01-23T03:18:24;3.53;;;3.23;;
12921;SDS011;6528;48.086;16.282;2023-01-23T03:20:52;4.37;;;4.07;;
12921;SDS011;6528;48.086;16.282;2023-01-23T03:23:19;3.83;;;3.53;;
12921;SDS011;6528;48.086;16.282;2023-01-23T03:25:46;3.83;;;3.53;;
12921;SDS011;6528;48.086;16.282;2023-01-23T03:28:14;4.17;;;3.87;;
12921;SDS011;6528;48.086;16.282;2023-01-23T03:30:59;4.17;;;3.90;;
12921;SDS011;6528;48.086;16.282;2023-01-23T03:33:26;4.33;;;4.03;;
12921;SDS011;6528;48.086;16.282;2023-01-23T03:35:53;4.03;;;3.73;;
12921;SDS011;6528;48.086;16.282;2023-01-23T03:38:19;4.70;;;4.30;;
12921;SDS011;6528;48.086;16.282;2023-01-23T03:40:48;4.00;;;3.70;;
12921;SDS011;6528;48.086;16.282;2023-01-23T03:43:34;4.30;;;3.90;;
12921;SDS011;6528;48.086;16.282;2023-01-23T03:46:00;3.83;;;3.53;;
12921;SDS011;6528;48.086;16.282;2023-01-23T03:48:27;3.80;;;3.50;;
12921;SDS011;6528;48.086;16.282;2023-01-23T03:50:54;3.90;;;3.60;;
12921;SDS011;6528;48.086;16.282;2023-01-23T03:53:20;4.43;;;4.07;;
12921;SDS011;6528;48.086;16.282;2023-01-23T03:55:48;3.93;;;3.63;;
12921;SDS011;6528;48.086;16.282;2023-01-23T03:58:15;4.47;;;4.17;;
12921;SDS011;6528;48.086;16.282;2023-01-23T04:00:42;4.90;;;4.40;;
12921;SDS011;6528;48.086;16.282;2023-01-23T04:03:09;3.80;;;3.50;;
12921;SDS011;6528;48.086;16.282;2023-01-23T04:05:35;3.87;;;3.57;;
12921;SDS011;6528;48.086;16.282;2023-01-23T04:08:02;4.20;;;3.90;;
12921;SDS011;6528;48.086;16.282;2023-01-23T04:10:29;4.90;;;4.50;;
12921;SDS011;6528;48.086;16.282;2023-01-23T04:12:56;3.73;;;3.43;;
12921;SDS011;6528;48.086;16.282;2023-01-23T04:15:22;4.23;;;3.83;;
12921;SDS011;6528;48.086;16.282;2023-01-23T04:17:49;4.37;;;3.97;;
12921;SDS011;6528;48.086;16.282;2023-01-23T04:20:16;4.17;;;3.67;;
12921;SDS011;6528;48.086;16.282;2023-01-23T04:22:43;4.67;;;3.70;;
12921;SDS011;6528;48.086;16.282;2023-01-23T04:25:10;4.93;;;4.53;;
12921;SDS011;6528;48.086;16.282;2023-01-23T04:27:37;4.67;;;4.27;;
12921;SDS011;6528;48.086;16.282;2023-01-23T04:30:03;4.40;;;4.10;;
12921;SDS011;6528;48.086;16.282;2023-01-23T04:32:30;5.23;;;4.73;;
12921;SDS011;6528;48.086;16.282;2023-01-23T04:34:57;4.57;;;4.17;;
12921;SDS011;6528;48.086;16.282;2023-01-23T04:37:24;4.63;;;4.33;;
12921;SDS011;6528;48.086;16.282;2023-01-23T04:39:51;4.57;;;4.17;;
12921;SDS011;6528;48.086;16.282;2023-01-23T04:42:17;3.97;;;3.67;;
12921;SDS011;6528;48.086;16.282;2023-01-23T04:44:44;5.03;;;4.63;;
12921;SDS011;6528;48.086;16.282;2023-01-23T04:47:11;4.40;;;4.00;;
12921;SDS011;6528;48.086;16.282;2023-01-23T04:49:37;4.03;;;3.73;;
12921;SDS011;6528;48.086;16.282;2023-01-23T04:52:04;4.30;;;3.90;;
12921;SDS011;6528;48.086;16.282;2023-01-23T04:54:31;4.60;;;4.20;;
12921;SDS011;6528;48.086;16.282;2023-01-23T04:56:58;4.87;;;4.30;;
12921;SDS011;6528;48.086;16.282;2023-01-23T04:59:24;4.53;;;4.13;;
12921;SDS011;6528;48.086;16.282;2023-01-23T05:01:51;5.07;;;4.67;;
12921;SDS011;6528;48.086;16.282;2023-01-23T05:04:18;4.60;;;4.20;;
12921;SDS011;6528;48.086;16.282;2023-01-23T05:06:44;4.63;;;4.23;;
12921;SDS011;6528;48.086;16.282;2023-01-23T05:09:11;4.17;;;3.87;;
12921;SDS011;6528;48.086;16.282;2023-01-23T05:11:38;4.87;;;4.47;;
12921;SDS011;6528;48.086;16.282;2023-01-23T05:14:05;5.27;;;4.77;;
12921;SDS011;6528;48.086;16.282;2023-01-23T05:16:32;5.23;;;4.73;;
12921;SDS011;6528;48.086;16.282;2023-01-23T05:18:58;5.43;;;4.80;;
12921;SDS011;6528;48.086;16.282;2023-01-23T05:21:25;5.40;;;5.00;;
12921;SDS011;6528;48.086;16.282;2023-01-23T05:23:52;5.10;;;4.70;;
12921;SDS011;6528;48.086;16.282;2023-01-23T05:26:19;5.30;;;4.90;;
12921;SDS011;6528;48.086;16.282;2023-01-23T05:28:45;5.37;;;4.87;;
12921;SDS011;6528;48.086;16.282;2023-01-23T05:31:12;5.70;;;5.20;;
12921;SDS011;6528;48.086;16.282;2023-01-23T05:33:39;5.50;;;5.03;;
12921;SDS011;6528;48.086;16.282;2023-01-23T05:36:06;4.83;;;4.33;;
12921;SDS011;6528;48.086;16.282;2023-01-23T05:38:33;5.50;;;5.10;;
12921;SDS011;6528;48.086;16.282;2023-01-23T05:41:00;5.37;;;4.90;;
12921;SDS011;6528;48.086;16.282;2023-01-23T05:43:27;5.43;;;5.03;;
12921;SDS011;6528;48.086;16.282;2023-01-23T05:45:53;5.10;;;4.70;;
12921;SDS011;6528;48.086;16.282;2023-01-23T05:48:20;5.03;;;4.63;;
12921;SDS011;6528;48.086;16.282;2023-01-23T05:50:47;5.60;;;5.20;;
12921;SDS011;6528;48.086;16.282;2023-01-23T05:53:14;5.87;;;5.37;;
12921;SDS011;6528;48.086;16.282;2023-01-23T05:55:40;5.80;;;5.30;;
12921;SDS011;6528;48.086;16.282;2023-01-23T05:58:07;5.77;;;5.27;;
12921;SDS011;6528;48.086;16.282;2023-01-23T06:00:34;6.10;;;5.60;;
12921;SDS011;6528;48.086;16.282;2023-01-23T06:03:01;6.03;;;5.43;;
12921;SDS011;6528;48.086;16.282;2023-01-23T06:05:28;6.13;;;5.40;;
12921;SDS011;6528;48.086;16.282;2023-01-23T06:07:54;5.63;;;5.13;;
12921;SDS011;6528;48.086;16.282;2023-01-23T06:10:21;6.43;;;5.80;;
12921;SDS011;6528;48.086;16.282;2023-01-23T06:12:48;7.23;;;6.37;;
12921;SDS011;6528;48.086;16.282;2023-01-23T06:15:15;5.80;;;5.30;;
12921;SDS011;6528;48.086;16.282;2023-01-23T06:17:42;6.27;;;5.67;;
12921;SDS011;6528;48.086;16.282;2023-01-23T06:20:08;6.13;;;5.63;;
12921;SDS011;6528;48.086;16.282;2023-01-23T06:22:37;5.50;;;5.10;;
12921;SDS011;6528;48.086;16.282;2023-01-23T06:25:04;6.67;;;6.00;;
12921;SDS011;6528;48.086;16.282;2023-01-23T06:27:31;5.97;;;5.47;;
12921;SDS011;6528;48.086;16.282;2023-01-23T06:29:58;5.57;;;5.07;;
12921;SDS011;6528;48.086;16.282;2023-01-23T06:32:24;5.50;;;5.00;;
12921;SDS011;6528;48.086;16.282;2023-01-23T06:34:51;7.03;;;6.33;;
12921;SDS011;6528;48.086;16.282;2023-01-23T06:37:18;6.40;;;5.50;;
12921;SDS011;6528;48.086;16.282;2023-01-23T06:39:44;6.50;;;5.90;;
12921;SDS011;6528;48.086;16.282;2023-01-23T06:42:11;6.80;;;6.20;;
12921;SDS011;6528;48.086;16.282;2023-01-23T06:44:38;6.67;;;6.07;;
12921;SDS011;6528;48.086;16.282;2023-01-23T06:47:04;7.17;;;6.47;;
12921;SDS011;6528;48.086;16.282;2023-01-23T06:49:31;10.60;;;7.00;;
12921;SDS011;6528;48.086;16.282;2023-01-23T06:51:58;7.40;;;6.67;;
12921;SDS011;6528;48.086;16.282;2023-01-23T06:54:25;7.47;;;6.77;;
12921;SDS011;6528;48.086;16.282;2023-01-23T06:56:51;7.40;;;6.30;;
12921;SDS011;6528;48.086;16.282;2023-01-23T06:59:18;7.17;;;6.33;;
12921;SDS011;6528;48.086;16.282;2023-01-23T07:01:45;7.20;;;6.60;;
12921;SDS011;6528;48.086;16.282;2023-01-23T07:04:12;7.83;;;7.13;;
12921;SDS011;6528;48.086;16.282;2023-01-23T07:06:39;8.53;;;6.10;;
12921;SDS011;6528;48.086;16.282;2023-01-23T07:09:05;6.60;;;6.00;;
12921;SDS011;6528;48.086;16.282;2023-01-23T07:11:32;9.53;;;6.57;;
12921;SDS011;6528;48.086;16.282;2023-01-23T07:14:01;8.13;;;7.33;;
12921;SDS011;6528;48.086;16.282;2023-01-23T07:16:28;7.87;;;7.07;;
12921;SDS011;6528;48.086;16.282;2023-01-23T07:18:55;7.60;;;6.87;;
12921;SDS011;6528;48.086;16.282;2023-01-23T07:21:24;7.83;;;7.10;;
12921;SDS011;6528;48.086;16.282;2023-01-23T07:23:51;9.10;;;6.83;;
12921;SDS011;6528;48.086;16.282;2023-01-23T07:26:17;8.00;;;7.20;;
12921;SDS011;6528;48.086;16.282;2023-01-23T07:28:44;8.93;;;8.13;;
12921;SDS011;6528;48.086;16.282;2023-01-23T07:31:11;9.10;;;8.00;;
12921;SDS011;6528;48.086;16.282;2023-01-23T07:33:38;8.77;;;7.50;;
12921;SDS011;6528;48.086;16.282;2023-01-23T07:36:05;9.13;;;7.80;;
12921;SDS011;6528;48.086;16.282;2023-01-23T07:38:33;11.10;;;7.97;;
12921;SDS011;6528;48.086;16.282;2023-01-23T07:41:00;10.60;;;8.83;;
12921;SDS011;6528;48.086;16.282;2023-01-23T07:43:26;9.50;;;7.60;;
12921;SDS011;6528;48.086;16.282;2023-01-23T07:45:53;9.80;;;8.80;;
12921;SDS011;6528;48.086;16.282;2023-01-23T07:48:22;9.83;;;8.83;;
12921;SDS011;6528;48.086;16.282;2023-01-23T07:50:49;9.83;;;8.67;;
12921;SDS011;6528;48.086;16.282;2023-01-23T07:53:16;10.67;;;9.53;;
12921;SDS011;6528;48.086;16.282;2023-01-23T07:55:43;11.10;;;9.97;;
12921;SDS011;6528;48.086;16.282;2023-01-23T07:58:10;13.60;;;11.50;;
12921;SDS011;6528;48.086;16.282;2023-01-23T08:00:37;16.30;;;12.97;;
12921;SDS011;6528;48.086;16.282;2023-01-23T08:03:04;18.00;;;13.97;;
12921;SDS011;6528;48.086;16.282;2023-01-23T08:05:31;18.33;;;14.10;;
12921;SDS011;6528;48.086;16.282;2023-01-23T08:07:58;18.30;;;15.13;;
12921;SDS011;6528;48.086;16.282;2023-01-23T08:10:40;18.80;;;15.10;;
12921;SDS011;6528;48.086;16.282;2023-01-23T08:13:07;16.17;;;14.57;;
12921;SDS011;6528;48.086;16.282;2023-01-23T08:15:35;16.57;;;14.93;;
12921;SDS011;6528;48.086;16.282;2023-01-23T08:18:02;16.73;;;14.93;;
12921;SDS011;6528;48.086;16.282;2023-01-23T08:20:29;15.83;;;14.23;;
12921;SDS011;6528;48.086;16.282;2023-01-23T08:22:56;18.40;;;16.40;;
12921;SDS011;6528;48.086;16.282;2023-01-23T08:25:24;19.43;;;16.20;;
12921;SDS011;6528;48.086;16.282;2023-01-23T08:27:50;20.03;;;16.50;;
12921;SDS011;6528;48.086;16.282;2023-01-23T08:30:17;18.50;;;16.50;;
12921;SDS011;6528;48.086;16.282;2023-01-23T08:32:44;19.40;;;17.13;;
12921;SDS011;6528;48.086;16.282;2023-01-23T08:35:12;21.00;;;17.80;;
12921;SDS011;6528;48.086;16.282;2023-01-23T08:37:38;21.30;;;19.00;;
12921;SDS011;6528;48.086;16.282;2023-01-23T08:40:07;19.27;;;17.23;;
12921;SDS011;6528;48.086;16.282;2023-01-23T08:42:35;21.13;;;18.53;;
12921;SDS011;6528;48.086;16.282;2023-01-23T08:45:01;20.20;;;18.27;;
12921;SDS011;6528;48.086;16.282;2023-01-23T08:47:28;23.27;;;18.97;;
12921;SDS011;6528;48.086;16.282;2023-01-23T08:49:55;22.33;;;17.70;;
12921;SDS011;6528;48.086;16.282;2023-01-23T08:52:22;20.23;;;18.13;;
12921;SDS011;6528;48.086;16.282;2023-01-23T08:54:49;21.90;;;18.53;;
12921;SDS011;6528;48.086;16.282;2023-01-23T08:57:15;20.50;;;18.37;;
12921;SDS011;6528;48.086;16.282;2023-01-23T08:59:42;21.13;;;18.53;;
12921;SDS011;6528;48.086;16.282;2023-01-23T09:02:10;21.27;;;19.00;;
12921;SDS011;6528;48.086;16.282;2023-01-23T09:04:38;20.30;;;18.17;;
12921;SDS011;6528;48.086;16.282;2023-01-23T09:07:04;22.00;;;19.27;;
12921;SDS011;6528;48.086;16.282;2023-01-23T09:09:31;19.03;;;17.00;;
12921;SDS011;6528;48.086;16.282;2023-01-23T09:11:58;20.53;;;18.40;;
12921;SDS011;6528;48.086;16.282;2023-01-23T09:14:25;21.60;;;19.20;;
12921;SDS011;6528;48.086;16.282;2023-01-23T09:16:51;20.90;;;18.67;;
12921;SDS011;6528;48.086;16.282;2023-01-23T09:19:18;20.27;;;18.17;;
12921;SDS011;6528;48.086;16.282;2023-01-23T09:21:45;20.77;;;18.63;;
12921;SDS011;6528;48.086;16.282;2023-01-23T09:24:12;18.73;;;16.83;;
12921;SDS011;6528;48.086;16.282;2023-01-23T09:26:38;20.07;;;17.80;;
12921;SDS011;6528;48.086;16.282;2023-01-23T09:29:05;20.03;;;17.93;;
12921;SDS011;6528;48.086;16.282;2023-01-23T09:31:32;20.27;;;17.23;;
12921;SDS011;6528;48.086;16.282;2023-01-23T09:33:58;20.30;;;18.10;;
12921;SDS011;6528;48.086;16.282;2023-01-23T09:36:25;22.30;;;19.00;;
12921;SDS011;6528;48.086;16.282;2023-01-23T09:39:07;20.03;;;17.93;;
12921;SDS011;6528;48.086;16.282;2023-01-23T09:41:34;19.53;;;17.40;;
12921;SDS011;6528;48.086;16.282;2023-01-23T09:44:04;20.20;;;18.03;;
12921;SDS011;6528;48.086;16.282;2023-01-23T09:49:22;17.60;;;15.67;;
12921;SDS011;6528;48.086;16.282;2023-01-23T09:52:00;20.00;;;17.93;;
12921;SDS011;6528;48.086;16.282;2023-01-23T09:57:11;19.80;;;17.90;;
12921;SDS011;6528;48.086;16.282;2023-01-23T09:59:42;17.57;;;15.87;;
12921;SDS011;6528;48.086;16.282;2023-01-23T10:02:25;18.53;;;16.63;;
12921;SDS011;6528;48.086;16.282;2023-01-23T10:04:52;17.77;;;15.90;;
12921;SDS011;6528;48.086;16.282;2023-01-23T10:18:38;16.10;;;14.50;;
12921;SDS011;6528;48.086;16.282;2023-01-23T10:21:14;18.30;;;16.40;;
12921;SDS011;6528;48.086;16.282;2023-01-23T10:27:22;17.53;;;15.70;;
12921;SDS011;6528;48.086;16.282;2023-01-23T10:29:55;17.47;;;15.30;;
12921;SDS011;6528;48.086;16.282;2023-01-23T10:32:26;16.50;;;14.80;;
12921;SDS011;6528;48.086;16.282;2023-01-23T10:37:47;17.03;;;15.23;;
12921;SDS011;6528;48.086;16.282;2023-01-23T10:40:20;16.23;;;14.47;;
12921;SDS011;6528;48.086;16.282;2023-01-23T10:43:11;16.37;;;14.67;;
12921;SDS011;6528;48.086;16.282;2023-01-23T10:45:43;15.67;;;14.07;;
12921;SDS011;6528;48.086;16.282;2023-01-23T10:48:27;17.23;;;15.53;;
12921;SDS011;6528;48.086;16.282;2023-01-23T10:50:59;17.87;;;15.97;;
12921;SDS011;6528;48.086;16.282;2023-01-23T10:53:26;18.17;;;16.37;;
12921;SDS011;6528;48.086;16.282;2023-01-23T10:55:54;17.20;;;15.40;;
12921;SDS011;6528;48.086;16.282;2023-01-23T10:58:37;15.97;;;14.23;;
12921;SDS011;6528;48.086;16.282;2023-01-23T11:01:16;16.77;;;14.97;;
12921;SDS011;6528;48.086;16.282;2023-01-23T11:03:51;15.93;;;14.30;;
12921;SDS011;6528;48.086;16.282;2023-01-23T11:06:20;16.93;;;15.17;;
12921;SDS011;6528;48.086;16.282;2023-01-23T11:08:55;16.33;;;14.30;;
12921;SDS011;6528;48.086;16.282;2023-01-23T11:11:34;16.73;;;13.50;;
12921;SDS011;6528;48.086;16.282;2023-01-23T11:14:06;17.33;;;15.50;;
12921;SDS011;6528;48.086;16.282;2023-01-23T11:16:37;19.93;;;15.23;;
12921;SDS011;6528;48.086;16.282;2023-01-23T11:21:36;18.57;;;16.00;;
12921;SDS011;6528;48.086;16.282;2023-01-23T11:27:13;21.70;;;19.13;;
12921;SDS011;6528;48.086;16.282;2023-01-23T11:32:24;32.03;;;22.30;;
12921;SDS011;6528;48.086;16.282;2023-01-23T11:34:52;29.17;;;20.97;;
12921;SDS011;6528;48.086;16.282;2023-01-23T11:37:38;29.37;;;22.27;;
12921;SDS011;6528;48.086;16.282;2023-01-23T11:40:07;31.07;;;22.93;;
12921;SDS011;6528;48.086;16.282;2023-01-23T11:42:42;33.63;;;23.07;;
12921;SDS011;6528;48.086;16.282;2023-01-23T11:48:27;35.40;;;24.03;;
12921;SDS011;6528;48.086;16.282;2023-01-23T11:56:55;40.03;;;26.80;;
12921;SDS011;6528;48.086;16.282;2023-01-23T11:59:46;39.20;;;29.20;;
12921;SDS011;6528;48.086;16.282;2023-01-23T12:05:25;41.97;;;29.03;;
12921;SDS011;6528;48.086;16.282;2023-01-23T12:08:03;48.43;;;30.07;;
12921;SDS011;6528;48.086;16.282;2023-01-23T12:10:55;40.87;;;29.40;;
12921;SDS011;6528;48.086;16.282;2023-01-23T12:28:04;41.83;;;29.10;;
12921;SDS011;6528;48.086;16.282;2023-01-23T12:34:02;43.13;;;29.97;;
12921;SDS011;6528;48.086;16.282;2023-01-23T12:36:57;41.80;;;29.23;;
12921;SDS011;6528;48.086;16.282;2023-01-23T12:40:08;40.40;;;26.53;;
12921;SDS011;6528;48.086;16.282;2023-01-23T12:42:58;39.50;;;26.27;;
12921;SDS011;6528;48.086;16.282;2023-01-23T12:45:34;41.97;;;27.80;;
12921;SDS011;6528;48.086;16.282;2023-01-23T12:48:13;38.83;;;27.23;;
12921;SDS011;6528;48.086;16.282;2023-01-23T12:50:44;39.53;;;26.50;;
12921;SDS011;6528;48.086;16.282;2023-01-23T12:53:16;39.17;;;25.77;;
12921;SDS011;6528;48.086;16.282;2023-01-23T12:55:56;38.23;;;25.30;;
12921;SDS011;6528;48.086;16.282;2023-01-23T12:58:25;39.77;;;26.17;;
12921;SDS011;6528;48.086;16.282;2023-01-23T13:06:32;36.27;;;24.90;;
12921;SDS011;6528;48.086;16.282;2023-01-23T13:09:23;34.10;;;23.50;;
12921;SDS011;6528;48.086;16.282;2023-01-23T13:14:47;35.80;;;23.70;;
12921;SDS011;6528;48.086;16.282;2023-01-23T13:17:37;30.27;;;22.23;;
12921;SDS011;6528;48.086;16.282;2023-01-23T13:21:14;35.77;;;22.83;;
12921;SDS011;6528;48.086;16.282;2023-01-23T13:23:39;32.87;;;23.33;;
12921;SDS011;6528;48.086;16.282;2023-01-23T13:36:45;31.00;;;21.57;;
12921;SDS011;6528;48.086;16.282;2023-01-23T13:41:43;30.13;;;21.30;;
12921;SDS011;6528;48.086;16.282;2023-01-23T13:44:15;33.27;;;20.73;;
12921;SDS011;6528;48.086;16.282;2023-01-23T13:52:53;31.00;;;19.77;;
12921;SDS011;6528;48.086;16.282;2023-01-23T13:55:56;26.17;;;20.53;;
12921;SDS011;6528;48.086;16.282;2023-01-23T13:58:55;27.50;;;19.60;;
12921;SDS011;6528;48.086;16.282;2023-01-23T14:01:40;26.57;;;18.90;;
12921;SDS011;6528;48.086;16.282;2023-01-23T14:04:49;30.57;;;20.37;;
12921;SDS011;6528;48.086;16.282;2023-01-23T14:07:58;23.00;;;19.23;;
12921;SDS011;6528;48.086;16.282;2023-01-23T14:10:54;25.70;;;18.77;;
12921;SDS011;6528;48.086;16.282;2023-01-23T14:13:36;22.00;;;17.70;;
12921;SDS011;6528;48.086;16.282;2023-01-23T14:16:17;26.90;;;17.73;;
12921;SDS011;6528;48.086;16.282;2023-01-23T14:19:04;25.03;;;18.20;;
12921;SDS011;6528;48.086;16.282;2023-01-23T14:22:08;24.63;;;17.87;;
12921;SDS011;6528;48.086;16.282;2023-01-23T14:30:20;19.67;;;16.70;;
12921;SDS011;6528;48.086;16.282;2023-01-23T14:32:54;22.23;;;17.67;;
12921;SDS011;6528;48.086;16.282;2023-01-23T14:35:25;20.00;;;16.83;;
12921;SDS011;6528;48.086;16.282;2023-01-23T14:37:58;23.40;;;16.87;;
12921;SDS011;6528;48.086;16.282;2023-01-23T14:40:28;21.20;;;16.50;;
12921;SDS011;6528;48.086;16.282;2023-01-23T14:43:05;19.23;;;15.63;;
12921;SDS011;6528;48.086;16.282;2023-01-23T14:45:34;18.37;;;15.27;;
12921;SDS011;6528;48.086;16.282;2023-01-23T14:48:03;20.57;;;16.23;;
12921;SDS011;6528;48.086;16.282;2023-01-23T14:50:33;16.53;;;14.70;;
12921;SDS011;6528;48.086;16.282;2023-01-23T14:53:01;18.67;;;15.83;;
12921;SDS011;6528;48.086;16.282;2023-01-23T14:55:30;17.23;;;15.27;;
12921;SDS011;6528;48.086;16.282;2023-01-23T14:58:01;22.97;;;16.77;;
12921;SDS011;6528;48.086;16.282;2023-01-23T15:00:29;22.70;;;17.20;;
12921;SDS011;6528;48.086;16.282;2023-01-23T15:02:57;20.07;;;14.60;;
12921;SDS011;6528;48.086;16.282;2023-01-23T15:05:24;20.07;;;15.10;;
12921;SDS011;6528;48.086;16.282;2023-01-23T15:10:46;17.43;;;15.00;;
12921;SDS011;6528;48.086;16.282;2023-01-23T15:13:19;17.20;;;14.13;;
12921;SDS011;6528;48.086;16.282;2023-01-23T15:15:52;16.93;;;13.70;;
12921;SDS011;6528;48.086;16.282;2023-01-23T15:20:58;19.47;;;14.30;;
12921;SDS011;6528;48.086;16.282;2023-01-23T15:26:17;16.17;;;14.37;;
12921;SDS011;6528;48.086;16.282;2023-01-23T15:29:23;16.47;;;14.67;;
12921;SDS011;6528;48.086;16.282;2023-01-23T15:31:44;16.47;;;14.00;;
12921;SDS011;6528;48.086;16.282;2023-01-23T15:34:19;14.87;;;13.27;;
12921;SDS011;6528;48.086;16.282;2023-01-23T15:39:38;16.90;;;13.40;;
12921;SDS011;6528;48.086;16.282;2023-01-23T15:44:39;13.33;;;11.73;;
12921;SDS011;6528;48.086;16.282;2023-01-23T15:47:07;16.77;;;13.67;;
12921;SDS011;6528;48.086;16.282;2023-01-23T15:49:35;16.27;;;12.90;;
12921;SDS011;6528;48.086;16.282;2023-01-23T15:52:25;14.30;;;12.80;;
12921;SDS011;6528;48.086;16.282;2023-01-23T15:54:57;17.00;;;13.37;;
12921;SDS011;6528;48.086;16.282;2023-01-23T15:57:26;14.63;;;12.43;;
12921;SDS011;6528;48.086;16.282;2023-01-23T15:59:53;13.20;;;11.73;;
12921;SDS011;6528;48.086;16.282;2023-01-23T16:02:20;14.20;;;12.70;;
12921;SDS011;6528;48.086;16.282;2023-01-23T16:04:59;13.87;;;12.37;;
12921;SDS011;6528;48.086;16.282;2023-01-23T16:07:29;13.93;;;12.57;;
12921;SDS011;6528;48.086;16.282;2023-01-23T16:10:00;14.90;;;12.30;;
12921;SDS011;6528;48.086;16.282;2023-01-23T16:12:40;16.43;;;11.33;;
12921;SDS011;6528;48.086;16.282;2023-01-23T16:15:11;13.13;;;11.37;;
12921;SDS011;6528;48.086;16.282;2023-01-23T16:17:43;12.93;;;11.60;;
12921;SDS011;6528;48.086;16.282;2023-01-23T16:20:19;13.23;;;11.87;;
12921;SDS011;6528;48.086;16.282;2023-01-23T16:22:51;12.87;;;11.50;;
12921;SDS011;6528;48.086;16.282;2023-01-23T16:30:39;12.67;;;11.37;;
12921;SDS011;6528;48.086;16.282;2023-01-23T16:33:06;11.33;;;10.20;;
12921;SDS011;6528;48.086;16.282;2023-01-23T16:35:32;13.07;;;11.20;;
12921;SDS011;6528;48.086;16.282;2023-01-23T16:37:59;14.00;;;12.27;;
12921;SDS011;6528;48.086;16.282;2023-01-23T16:40:27;12.40;;;10.97;;
12921;SDS011;6528;48.086;16.282;2023-01-23T16:42:58;12.90;;;11.60;;
12921;SDS011;6528;48.086;16.282;2023-01-23T16:45:28;12.93;;;10.90;;
12921;SDS011;6528;48.086;16.282;2023-01-23T16:47:56;12.50;;;11.23;;
12921;SDS011;6528;48.086;16.282;2023-01-23T16:50:33;12.23;;;11.00;;
12921;SDS011;6528;48.086;16.282;2023-01-23T16:55:52;12.07;;;10.70;;
12921;SDS011;6528;48.086;16.282;2023-01-23T16:58:22;11.73;;;9.60;;
12921;SDS011;6528;48.086;16.282;2023-01-23T17:00:51;11.73;;;10.20;;